createdAt,value
2018-09-06T00:00:56.275Z,0.00
2018-09-06T00:02:27.942Z,0.00
2018-09-06T00:03:59.408Z,0.00
2018-09-06T00:07:02.543Z,0.00
2018-09-06T00:08:34.560Z,0.00
2018-09-06T00:10:05.676Z,0.00
2018-09-06T00:11:37.246Z,0.00
2018-09-06T00:13:08.810Z,0.00
2018-09-06T00:14:40.678Z,0.00
2018-09-06T00:16:11.943Z,0.00
2018-09-06T00:17:43.511Z,0.00
2018-09-06T00:19:15.077Z,0.00
2018-09-06T00:20:46.749Z,0.00
2018-09-06T00:22:18.212Z,0.00
2018-09-06T00:23:49.779Z,0.00
2018-09-06T00:25:21.344Z,0.00
2018-09-06T00:26:53.658Z,0.00
2018-09-06T00:28:24.484Z,0.00
2018-09-06T00:29:56.046Z,0.00
2018-09-06T00:31:27.616Z,0.00
2018-09-06T00:32:59.280Z,0.00
2018-09-06T00:34:30.746Z,0.00
2018-09-06T00:36:02.312Z,0.00
2018-09-06T00:37:33.880Z,0.00
2018-09-06T00:39:05.548Z,0.00
2018-09-06T00:40:37.014Z,0.00
2018-09-06T00:42:08.580Z,0.00
2018-09-06T00:43:40.146Z,0.00
2018-09-06T00:45:12.114Z,0.00
2018-09-06T00:46:43.281Z,0.00
2018-09-06T00:48:14.846Z,0.00
2018-09-06T00:49:46.413Z,0.00
2018-09-06T00:51:18.080Z,0.00
2018-09-06T00:52:49.547Z,0.00
2018-09-06T00:54:21.114Z,0.00
2018-09-06T00:55:52.681Z,0.00
2018-09-06T00:57:24.348Z,0.00
2018-09-06T00:58:55.814Z,0.00
2018-09-06T01:00:27.381Z,0.00
2018-09-06T01:01:58.947Z,0.00
2018-09-06T01:03:30.752Z,0.00
2018-09-06T01:05:02.085Z,0.00
2018-09-06T01:06:33.647Z,0.00
2018-09-06T01:08:05.216Z,0.00
2018-09-06T01:09:36.885Z,0.00
2018-09-06T01:11:08.349Z,0.00
2018-09-06T01:12:39.915Z,0.00
2018-09-06T01:14:11.482Z,0.00
2018-09-06T01:15:43.349Z,0.00
2018-09-06T01:17:14.615Z,0.00
2018-09-06T01:18:46.183Z,0.00
2018-09-06T01:20:17.749Z,0.00
2018-09-06T01:21:49.565Z,0.00
2018-09-06T01:23:20.884Z,0.00
2018-09-06T01:24:52.452Z,0.00
2018-09-06T01:26:24.018Z,0.00
2018-09-06T01:27:55.683Z,0.00
2018-09-06T01:29:27.150Z,0.00
2018-09-06T01:30:58.717Z,0.00
2018-09-06T01:32:30.375Z,0.00
2018-09-06T01:34:01.883Z,0.00
2018-09-06T01:35:33.417Z,0.00
2018-09-06T01:37:04.984Z,0.00
2018-09-06T01:38:36.710Z,0.00
2018-09-06T01:40:08.318Z,0.00
2018-09-06T01:41:39.684Z,0.00
2018-09-06T01:43:11.251Z,0.00
2018-09-06T01:44:42.820Z,0.00
2018-09-06T01:46:14.485Z,0.00
2018-09-06T01:47:45.952Z,0.00
2018-09-06T01:49:17.518Z,0.00
2018-09-06T01:50:49.085Z,0.00
2018-09-06T01:52:20.952Z,0.00
2018-09-06T01:53:52.218Z,0.00
2018-09-06T01:55:23.786Z,0.00
2018-09-06T01:56:55.356Z,0.00
2018-09-06T01:58:27.020Z,0.00
2018-09-06T01:59:58.486Z,0.00
2018-09-06T02:01:30.051Z,0.00
2018-09-06T02:03:01.619Z,0.00
2018-09-06T02:04:33.186Z,0.00
2018-09-06T02:06:04.753Z,0.00
2018-09-06T02:07:36.318Z,0.00
2018-09-06T02:09:07.885Z,0.00
2018-09-06T02:10:39.453Z,0.00
2018-09-06T02:12:11.028Z,0.00
2018-09-06T02:13:42.587Z,0.00
2018-09-06T02:15:14.154Z,0.00
2018-09-06T02:16:46.121Z,0.00
2018-09-06T02:18:17.289Z,0.00
2018-09-06T02:19:48.853Z,0.00
2018-09-06T02:21:20.422Z,0.00
2018-09-06T02:22:51.987Z,0.00
2018-09-06T02:24:23.557Z,0.00
2018-09-06T02:25:55.121Z,0.00
2018-09-06T02:27:26.690Z,0.00
2018-09-06T02:28:58.359Z,0.00
2018-09-06T02:30:29.823Z,0.00
2018-09-06T02:32:01.394Z,0.00
2018-09-06T02:33:32.956Z,0.00
2018-09-06T02:35:04.723Z,0.00
2018-09-06T02:36:36.088Z,0.00
2018-09-06T02:38:07.660Z,0.00
2018-09-06T02:39:39.223Z,0.00
2018-09-06T02:41:10.890Z,0.00
2018-09-06T02:42:42.357Z,0.00
2018-09-06T02:44:13.925Z,0.00
2018-09-06T02:45:45.490Z,0.00
2018-09-06T02:47:17.157Z,0.00
2018-09-06T02:48:48.623Z,0.00
2018-09-06T02:50:20.193Z,0.00
2018-09-06T02:51:51.755Z,0.00
2018-09-06T02:53:23.725Z,0.00
2018-09-06T02:54:54.890Z,0.00
2018-09-06T02:56:26.458Z,0.00
2018-09-06T02:57:58.024Z,0.00
2018-09-06T02:59:29.696Z,0.00
2018-09-06T03:01:01.158Z,0.00
2018-09-06T03:02:32.724Z,0.00
2018-09-06T03:04:04.291Z,0.00
2018-09-06T03:05:35.908Z,0.00
2018-09-06T03:07:07.423Z,0.00
2018-09-06T03:08:38.991Z,0.00
2018-09-06T03:10:10.559Z,0.00
2018-09-06T03:11:42.325Z,0.00
2018-09-06T03:13:13.692Z,0.00
2018-09-06T03:16:16.825Z,0.00
2018-09-06T03:17:48.692Z,0.00
2018-09-06T03:19:19.958Z,0.00
2018-09-06T03:22:23.093Z,0.00
2018-09-06T03:23:54.959Z,0.00
2018-09-06T03:25:26.229Z,0.00
2018-09-06T03:26:57.792Z,0.00
2018-09-06T03:28:29.359Z,0.00
2018-09-06T03:30:01.133Z,0.00
2018-09-06T03:31:32.492Z,0.00
2018-09-06T03:33:04.060Z,0.00
2018-09-06T03:34:35.624Z,0.00
2018-09-06T03:36:07.350Z,0.00
2018-09-06T03:37:38.758Z,0.00
2018-09-06T03:39:10.327Z,0.00
2018-09-06T03:40:41.892Z,0.00
2018-09-06T03:42:13.459Z,0.00
2018-09-06T03:43:45.025Z,0.00
2018-09-06T03:45:16.592Z,0.00
2018-09-06T03:46:48.162Z,0.00
2018-09-06T03:48:19.874Z,0.00
2018-09-06T03:49:51.300Z,0.00
2018-09-06T03:51:22.858Z,0.00
2018-09-06T03:52:54.425Z,0.00
2018-09-06T03:54:26.291Z,0.00
2018-09-06T03:55:57.559Z,0.00
2018-09-06T03:57:29.123Z,0.00
2018-09-06T03:59:00.688Z,0.00
2018-09-06T04:00:32.356Z,0.00
2018-09-06T04:02:03.822Z,0.00
2018-09-06T04:03:35.390Z,0.00
2018-09-06T04:06:38.670Z,0.00
2018-09-06T04:08:10.090Z,0.00
2018-09-06T04:09:42.197Z,0.00
2018-09-06T04:11:13.220Z,0.00
2018-09-06T04:12:45.091Z,0.00
2018-09-06T04:14:16.358Z,0.00
2018-09-06T04:15:47.919Z,0.00
2018-09-06T04:17:19.488Z,0.00
2018-09-06T04:18:51.695Z,0.00
2018-09-06T04:20:22.618Z,0.00
2018-09-06T04:21:54.186Z,0.00
2018-09-06T04:23:25.750Z,0.00
2018-09-06T04:24:57.717Z,0.00
2018-09-06T04:26:28.883Z,0.00
2018-09-06T04:28:00.450Z,0.00
2018-09-06T04:29:32.016Z,0.00
2018-09-06T04:31:03.704Z,0.00
2018-09-06T04:32:35.147Z,0.00
2018-09-06T04:34:06.717Z,0.00
2018-09-06T04:35:38.282Z,0.00
2018-09-06T04:37:09.947Z,0.00
2018-09-06T04:38:41.415Z,0.00
2018-09-06T04:40:12.979Z,0.00
2018-09-06T04:41:44.547Z,0.00
2018-09-06T04:43:16.316Z,0.00
2018-09-06T04:44:47.677Z,0.00
2018-09-06T04:46:19.247Z,0.00
2018-09-06T04:47:50.810Z,0.00
2018-09-06T04:49:22.676Z,0.00
2018-09-06T04:50:53.943Z,0.00
2018-09-06T04:52:25.508Z,0.00
2018-09-06T04:53:57.074Z,0.00
2018-09-06T04:55:28.941Z,0.00
2018-09-06T04:57:00.207Z,0.00
2018-09-06T04:58:31.918Z,0.00
2018-09-06T05:00:03.338Z,0.00
2018-09-06T05:01:35.106Z,0.00
2018-09-06T05:03:06.471Z,0.00
2018-09-06T05:04:38.036Z,0.00
2018-09-06T05:06:09.602Z,0.00
2018-09-06T05:07:41.168Z,0.00
2018-09-06T05:09:12.734Z,0.00
2018-09-06T05:10:44.299Z,0.00
2018-09-06T05:12:15.866Z,0.00
2018-09-06T05:13:47.433Z,0.00
2018-09-06T05:15:19.000Z,0.00
2018-09-06T05:16:50.563Z,0.00
2018-09-06T05:18:22.133Z,0.00
2018-09-06T05:19:54.096Z,0.00
2018-09-06T05:21:25.260Z,0.00
2018-09-06T05:22:56.826Z,0.00
2018-09-06T05:24:28.394Z,0.00
2018-09-06T05:26:00.260Z,0.00
2018-09-06T05:27:31.523Z,0.00
2018-09-06T05:29:03.094Z,0.00
2018-09-06T05:30:34.712Z,0.00
2018-09-06T05:32:06.222Z,0.00
2018-09-06T05:33:37.786Z,0.00
2018-09-06T05:35:09.412Z,0.00
2018-09-06T05:36:40.918Z,0.00
2018-09-06T05:38:12.634Z,0.00
2018-09-06T05:39:44.050Z,0.00
2018-09-06T05:41:15.615Z,0.00
2018-09-06T05:42:47.181Z,0.00
2018-09-06T05:44:18.746Z,0.00
2018-09-06T05:45:50.314Z,0.00
2018-09-06T05:47:21.897Z,0.00
2018-09-06T05:48:53.443Z,0.00
2018-09-06T05:50:25.310Z,0.00
2018-09-06T05:51:56.577Z,0.00
2018-09-06T05:53:28.179Z,0.00
2018-09-06T05:54:59.707Z,0.00
2018-09-06T05:56:31.677Z,0.00
2018-09-06T05:58:02.857Z,0.00
2018-09-06T05:59:34.438Z,0.00
2018-09-06T06:01:05.970Z,0.00
2018-09-06T06:02:37.536Z,0.00
2018-09-06T06:04:09.101Z,0.00
2018-09-06T06:05:40.668Z,0.00
2018-09-06T06:07:12.234Z,0.00
2018-09-06T06:08:43.798Z,0.00
2018-09-06T06:10:15.367Z,0.00
2018-09-06T06:11:46.973Z,0.00
2018-09-06T06:13:18.497Z,0.00
2018-09-06T06:14:50.165Z,0.00
2018-09-06T06:16:21.627Z,0.00
2018-09-06T06:17:53.193Z,0.00
2018-09-06T06:19:24.758Z,0.00
2018-09-06T06:20:56.930Z,0.00
2018-09-06T06:22:27.890Z,0.00
2018-09-06T06:23:59.658Z,0.00
2018-09-06T06:25:31.022Z,0.00
2018-09-06T06:27:02.894Z,0.00
2018-09-06T06:28:34.153Z,0.00
2018-09-06T06:30:05.723Z,0.00
2018-09-06T06:31:37.283Z,0.00
2018-09-06T06:33:08.999Z,0.00
2018-09-06T06:34:40.619Z,0.00
2018-09-06T06:36:11.980Z,0.00
2018-09-06T06:37:43.545Z,0.00
2018-09-06T06:39:15.110Z,0.00
2018-09-06T06:40:46.678Z,0.00
2018-09-06T06:42:18.241Z,0.00
2018-09-06T06:43:49.806Z,0.00
2018-09-06T06:48:24.704Z,0.00
2018-09-06T06:49:56.072Z,0.00
2018-09-06T06:51:27.634Z,0.00
2018-09-06T06:52:59.200Z,0.00
2018-09-06T06:54:31.067Z,0.00
2018-09-06T06:56:02.332Z,0.00
2018-09-06T06:57:33.896Z,0.00
2018-09-06T06:59:05.463Z,0.00
2018-09-06T07:00:37.128Z,0.00
2018-09-06T07:02:08.596Z,0.00
2018-09-06T07:03:40.362Z,0.00
2018-09-06T07:05:11.724Z,0.00
2018-09-06T07:06:43.501Z,0.00
2018-09-06T07:08:14.855Z,0.00
2018-09-06T07:09:46.419Z,0.00
2018-09-06T07:11:17.985Z,0.00
2018-09-06T07:12:49.572Z,0.00
2018-09-06T07:14:21.118Z,0.00
2018-09-06T07:15:52.682Z,0.00
2018-09-06T07:17:24.247Z,0.00
2018-09-06T07:18:55.914Z,0.00
2018-09-06T07:20:27.682Z,0.00
2018-09-06T07:21:58.945Z,0.00
2018-09-06T07:23:30.510Z,0.00
2018-09-06T07:25:02.255Z,0.00
2018-09-06T07:26:33.642Z,0.00
2018-09-06T07:28:05.208Z,0.00
2018-09-06T07:29:36.772Z,0.00
2018-09-06T07:31:08.639Z,0.00
2018-09-06T07:32:39.904Z,0.00
2018-09-06T07:34:11.469Z,0.00
2018-09-06T07:35:43.034Z,0.00
2018-09-06T07:37:14.700Z,0.00
2018-09-06T07:38:46.165Z,0.00
2018-09-06T07:40:17.732Z,0.00
2018-09-06T07:41:49.297Z,0.00
2018-09-06T07:43:21.066Z,0.00
2018-09-06T07:46:23.994Z,0.00
2018-09-06T07:47:55.561Z,0.00
2018-09-06T07:49:27.227Z,0.00
2018-09-06T07:50:58.691Z,0.00
2018-09-06T07:52:30.257Z,0.00
2018-09-06T07:54:01.824Z,0.00
2018-09-06T07:55:33.691Z,0.00
2018-09-06T07:57:04.954Z,0.00
2018-09-06T07:58:36.519Z,0.00
2018-09-06T08:00:08.087Z,0.00
2018-09-06T08:01:40.423Z,0.00
2018-09-06T08:03:11.222Z,0.00
2018-09-06T08:04:42.782Z,0.00
2018-09-06T08:06:14.348Z,0.00
2018-09-06T08:07:46.115Z,0.00
2018-09-06T08:09:17.477Z,0.00
2018-09-06T08:10:49.044Z,0.00
2018-09-06T08:12:20.609Z,0.00
2018-09-06T08:13:52.175Z,0.00
2018-09-06T08:15:23.742Z,0.00
2018-09-06T08:16:55.304Z,0.00
2018-09-06T08:18:26.869Z,0.00
2018-09-06T08:19:58.586Z,0.00
2018-09-06T08:21:30.002Z,0.00
2018-09-06T08:23:01.567Z,0.00
2018-09-06T08:24:33.131Z,0.00
2018-09-06T08:26:04.696Z,0.00
2018-09-06T08:27:36.263Z,0.00
2018-09-06T08:29:07.828Z,0.00
2018-09-06T08:30:39.470Z,0.00
2018-09-06T08:32:11.264Z,0.00
2018-09-06T08:33:42.523Z,0.00
2018-09-06T08:35:14.092Z,0.00
2018-09-06T08:36:45.716Z,0.00
2018-09-06T08:38:17.371Z,0.00
2018-09-06T08:39:48.787Z,0.00
2018-09-06T08:41:20.350Z,0.00
2018-09-06T08:42:52.118Z,0.00
2018-09-06T08:44:23.482Z,0.00
2018-09-06T08:45:55.070Z,0.00
2018-09-06T08:47:26.644Z,4.00
2018-09-06T08:48:58.179Z,0.00
2018-09-06T08:50:29.844Z,4.00
2018-09-06T08:52:01.349Z,4.00
2018-09-06T08:53:32.875Z,8.00
2018-09-06T08:55:04.443Z,12.00
2018-09-06T08:56:36.209Z,20.00
2018-09-06T08:58:07.571Z,28.00
2018-09-06T08:59:39.137Z,44.00
2018-09-06T09:01:10.709Z,60.00
2018-09-06T09:02:42.674Z,92.00
2018-09-06T09:04:13.834Z,128.00
2018-09-06T09:05:45.399Z,176.00
2018-09-06T09:07:16.963Z,236.00
2018-09-06T09:08:48.531Z,308.00
2018-09-06T09:10:20.094Z,396.00
2018-09-06T09:11:51.681Z,496.00
2018-09-06T09:13:23.289Z,612.00
2018-09-06T09:16:26.507Z,892.00
2018-09-06T09:17:57.923Z,1048.00
2018-09-06T09:19:29.487Z,1216.00
2018-09-06T09:21:01.056Z,1388.00
2018-09-06T09:22:32.718Z,1564.00
2018-09-06T09:24:04.189Z,1756.00
2018-09-06T09:25:35.827Z,1968.00
2018-09-06T09:27:07.322Z,2264.00
2018-09-06T09:28:38.881Z,2500.00
2018-09-06T09:30:10.446Z,2744.00
2018-09-06T09:31:42.044Z,2976.00
2018-09-06T09:33:13.579Z,3200.00
2018-09-06T09:34:45.545Z,3432.00
2018-09-06T09:36:16.739Z,3648.00
2018-09-06T09:39:19.844Z,4080.00
2018-09-06T09:42:22.978Z,4472.00
2018-09-06T09:43:55.290Z,4644.00
2018-09-06T09:45:26.113Z,4844.00
2018-09-06T09:48:29.403Z,5212.00
2018-09-06T09:50:00.818Z,5324.00
2018-09-06T09:51:32.796Z,5468.00
2018-09-06T09:53:04.484Z,5632.00
2018-09-06T09:54:36.283Z,5784.00
2018-09-06T09:56:07.136Z,5952.00
2018-09-06T09:57:39.546Z,6112.00
2018-09-06T09:59:10.733Z,6308.00
2018-09-06T10:00:42.137Z,6424.00
2018-09-06T10:02:13.568Z,6592.00
2018-09-06T10:03:45.210Z,6740.00
2018-09-06T10:05:16.557Z,6868.00
2018-09-06T10:08:19.654Z,7336.00
2018-09-06T10:09:51.251Z,7620.00
2018-09-06T10:11:22.991Z,7948.00
2018-09-06T10:12:54.358Z,8252.00
2018-09-06T10:14:26.256Z,8588.00
2018-09-06T10:15:57.609Z,8968.00
2018-09-06T10:17:29.193Z,9328.00
2018-09-06T10:19:00.664Z,9808.00
2018-09-06T10:20:32.322Z,10228.00
2018-09-06T10:22:03.899Z,10776.00
2018-09-06T10:23:35.504Z,11040.00
2018-09-06T10:25:08.371Z,11504.00
2018-09-06T10:26:38.647Z,12000.00
2018-09-06T10:28:11.108Z,12456.00
2018-09-06T10:29:41.732Z,13448.00
2018-09-06T10:31:13.246Z,14092.00
2018-09-06T10:32:45.034Z,14600.00
2018-09-06T10:34:16.419Z,15136.00
2018-09-06T10:35:48.099Z,15780.00
2018-09-06T10:37:19.652Z,16068.00
2018-09-06T10:38:51.375Z,16672.00
2018-09-06T10:40:22.815Z,18688.00
2018-09-06T10:41:54.345Z,19072.00
2018-09-06T10:44:57.590Z,20480.00
2018-09-06T10:46:30.447Z,21056.00
2018-09-06T10:48:01.353Z,21344.00
2018-09-06T10:49:33.638Z,21632.00
2018-09-06T10:51:04.620Z,23104.00
2018-09-06T10:52:36.430Z,22848.00
2018-09-06T10:54:07.847Z,19136.00
2018-09-06T10:55:40.076Z,21568.00
2018-09-06T10:57:11.324Z,22560.00
2018-09-06T10:58:41.908Z,27424.00
2018-09-06T11:00:13.112Z,26592.00
2018-09-06T11:01:46.155Z,19648.00
2018-09-06T11:03:16.302Z,19392.00
2018-09-06T11:04:47.921Z,26112.00
2018-09-06T11:06:20.104Z,22464.00
2018-09-06T11:07:50.974Z,18912.00
2018-09-06T11:09:22.769Z,24896.00
2018-09-06T11:10:54.183Z,18240.00
2018-09-06T11:12:25.703Z,19936.00
2018-09-06T11:13:58.184Z,27264.00
2018-09-06T11:15:29.479Z,16648.00
2018-09-06T11:17:00.936Z,32672.00
2018-09-06T11:18:33.104Z,23008.00
2018-09-06T11:20:03.722Z,22304.00
2018-09-06T11:21:35.999Z,21536.00
2018-09-06T11:24:38.792Z,21472.00
2018-09-06T11:26:11.583Z,24256.00
2018-09-06T11:27:41.759Z,23552.00
2018-09-06T11:29:13.016Z,21728.00
2018-09-06T11:30:44.954Z,25952.00
2018-09-06T11:32:16.187Z,25248.00
2018-09-06T11:33:47.832Z,21792.00
2018-09-06T11:35:19.389Z,24000.00
2018-09-06T11:38:22.481Z,22816.00
2018-09-06T11:39:54.291Z,24320.00
2018-09-06T11:41:25.527Z,23584.00
2018-09-06T11:42:57.645Z,28864.00
2018-09-06T11:44:29.099Z,33344.00
2018-09-06T11:46:00.797Z,34336.00
2018-09-06T11:47:32.050Z,31776.00
2018-09-06T11:49:03.559Z,26880.00
2018-09-06T11:50:35.012Z,28896.00
2018-09-06T11:52:06.548Z,27392.00
2018-09-06T11:53:38.661Z,30720.00
2018-09-06T11:55:10.084Z,28064.00
2018-09-06T11:56:41.609Z,24896.00
2018-09-06T11:59:46.043Z,27296.00
2018-09-06T12:01:16.031Z,26016.00
2018-09-06T12:02:47.834Z,25600.00
2018-09-06T12:04:19.163Z,27488.00
2018-09-06T12:07:22.609Z,26784.00
2018-09-06T12:08:54.271Z,28000.00
2018-09-06T12:10:25.332Z,27904.00
2018-09-06T12:11:57.328Z,28896.00
2018-09-06T12:13:28.579Z,28352.00
2018-09-06T12:15:00.191Z,29600.00
2018-09-06T12:16:32.103Z,55776.00
2018-09-06T12:18:03.243Z,39168.00
2018-09-06T12:19:35.288Z,36160.00
2018-09-06T12:21:06.896Z,37600.00
2018-09-06T12:22:38.028Z,42688.00
2018-09-06T12:24:09.519Z,38112.00
2018-09-06T12:25:41.551Z,41056.00
2018-09-06T12:27:12.704Z,39520.00
2018-09-06T12:28:44.239Z,43360.00
2018-09-06T12:31:47.560Z,60448.00
2018-09-06T12:33:19.448Z,46368.00
2018-09-06T12:34:52.499Z,41184.00
2018-09-06T12:36:23.063Z,41472.00
2018-09-06T12:37:55.848Z,50624.00
2018-09-06T12:39:26.240Z,69568.00
2018-09-06T12:40:58.011Z,47840.00
2018-09-06T12:42:29.757Z,53184.00
2018-09-06T12:44:00.960Z,43584.00
2018-09-06T12:45:31.687Z,49344.00
2018-09-06T12:48:35.240Z,46048.00
2018-09-06T12:50:06.447Z,52320.00
2018-09-06T12:51:37.996Z,40544.00
2018-09-06T12:53:09.709Z,43264.00
2018-09-06T12:54:41.446Z,50976.00
2018-09-06T12:56:12.714Z,40896.00
2018-09-06T12:57:44.445Z,44096.00
2018-09-06T12:59:16.570Z,55808.00
2018-09-06T13:00:48.182Z,53984.00
2018-09-06T13:02:20.654Z,73856.00
2018-09-06T13:03:50.583Z,105024.00
2018-09-06T13:05:22.139Z,80384.00
2018-09-06T13:06:53.868Z,97664.00
2018-09-06T13:08:25.549Z,98464.00
2018-09-06T13:09:56.885Z,62976.00
2018-09-06T13:11:28.334Z,103776.00
2018-09-06T13:14:31.664Z,49920.00
2018-09-06T13:16:03.580Z,104032.00
2018-09-06T13:17:35.250Z,100256.00
2018-09-06T13:19:06.397Z,94752.00
2018-09-06T13:20:38.512Z,89056.00
2018-09-06T13:22:09.507Z,77728.00
2018-09-06T13:23:41.125Z,93920.00
2018-09-06T13:25:12.792Z,95392.00
2018-09-06T13:26:45.631Z,96192.00
2018-09-06T13:28:17.349Z,94624.00
2018-09-06T13:29:47.691Z,79936.00
2018-09-06T13:31:19.731Z,94080.00
2018-09-06T13:32:51.640Z,89920.00
2018-09-06T13:34:23.072Z,87712.00
2018-09-06T13:35:57.808Z,85504.00
2018-09-06T13:38:58.389Z,93824.00
2018-09-06T13:40:29.062Z,94016.00
2018-09-06T13:42:05.104Z,94272.00
2018-09-06T13:43:32.008Z,97280.00
2018-09-06T13:45:04.599Z,99456.00
2018-09-06T13:46:36.345Z,100352.00
2018-09-06T13:48:06.791Z,100960.00
2018-09-06T13:49:40.606Z,102592.00
2018-09-06T13:51:09.899Z,99392.00
2018-09-06T13:52:41.516Z,101632.00
2018-09-06T13:54:14.232Z,103328.00
2018-09-06T13:55:45.119Z,101248.00
2018-09-06T13:57:16.423Z,109216.00
2018-09-06T13:58:48.116Z,98080.00
2018-09-06T14:00:20.406Z,101248.00
2018-09-06T14:01:50.855Z,108000.00
2018-09-06T14:03:23.223Z,109600.00
2018-09-06T14:04:55.986Z,103616.00
2018-09-06T14:06:27.014Z,110144.00
2018-09-06T14:07:56.893Z,111552.00
2018-09-06T14:09:29.117Z,107200.00
2018-09-06T14:11:01.274Z,107232.00
2018-09-06T14:12:34.524Z,110176.00
2018-09-06T14:14:03.703Z,108800.00
2018-09-06T14:15:34.948Z,109888.00
2018-09-06T14:17:07.426Z,110208.00
2018-09-06T14:18:38.685Z,106208.00
2018-09-06T14:20:09.896Z,110848.00
2018-09-06T14:21:41.381Z,102496.00
2018-09-06T14:23:12.973Z,105184.00
2018-09-06T14:24:44.372Z,108096.00
2018-09-06T14:26:15.905Z,106720.00
2018-09-06T14:27:47.674Z,111872.00
2018-09-06T14:29:19.838Z,111616.00
2018-09-06T14:30:51.817Z,111840.00
2018-09-06T14:32:22.135Z,111424.00
2018-09-06T14:33:54.097Z,112512.00
2018-09-06T14:36:57.013Z,111104.00
2018-09-06T14:38:28.743Z,109600.00
2018-09-06T14:40:00.088Z,116448.00
2018-09-06T14:43:03.165Z,115648.00
2018-09-06T14:44:34.941Z,112096.00
2018-09-06T14:47:38.006Z,116288.00
2018-09-06T14:49:09.488Z,113344.00
2018-09-06T14:50:41.104Z,112640.00
2018-09-06T14:53:44.880Z,116960.00
2018-09-06T14:55:15.857Z,118304.00
2018-09-06T14:56:47.708Z,113536.00
2018-09-06T14:59:50.799Z,114784.00
2018-09-06T15:02:53.744Z,111232.00
2018-09-06T15:05:57.113Z,106016.00
2018-09-06T15:07:28.996Z,111744.00
2018-09-06T15:09:00.075Z,119520.00
2018-09-06T15:12:03.439Z,120032.00
2018-09-06T15:13:34.880Z,116288.00
2018-09-06T15:15:06.571Z,121984.00
2018-09-06T15:18:09.995Z,122368.00
2018-09-06T15:19:41.295Z,123392.00
2018-09-06T15:21:14.791Z,125440.00
2018-09-06T15:22:44.611Z,125120.00
2018-09-06T15:24:16.755Z,122400.00
2018-09-06T15:25:48.694Z,118880.00
2018-09-06T15:27:19.289Z,115904.00
2018-09-06T15:28:50.701Z,122208.00
2018-09-06T15:30:23.024Z,110560.00
2018-09-06T15:31:55.756Z,84864.00
2018-09-06T15:33:26.315Z,111392.00
2018-09-06T15:36:30.264Z,107168.00
2018-09-06T15:39:32.045Z,120960.00
2018-09-06T15:41:03.356Z,129568.00
2018-09-06T15:42:35.111Z,128800.00
2018-09-06T15:44:06.698Z,118592.00
2018-09-06T15:45:38.397Z,116096.00
2018-09-06T15:47:09.740Z,117184.00
2018-09-06T15:48:41.499Z,113632.00
2018-09-06T15:50:13.093Z,109344.00
2018-09-06T15:51:44.626Z,96320.00
2018-09-06T15:53:16.415Z,122368.00
2018-09-06T15:56:19.680Z,120960.00
2018-09-06T15:57:51.259Z,119264.00
2018-09-06T15:59:22.817Z,118624.00
2018-09-06T16:00:54.168Z,121408.00
2018-09-06T16:05:28.809Z,115488.00
2018-09-06T16:07:00.590Z,117568.00
2018-09-06T16:08:32.337Z,111008.00
2018-09-06T16:10:04.256Z,110976.00
2018-09-06T16:11:36.428Z,115776.00
2018-09-06T16:13:07.115Z,113952.00
2018-09-06T16:14:38.326Z,114720.00
2018-09-06T16:16:10.027Z,118368.00
2018-09-06T16:17:42.779Z,119904.00
2018-09-06T16:19:13.598Z,118464.00
2018-09-06T16:20:44.551Z,115360.00
2018-09-06T16:22:16.933Z,111168.00
2018-09-06T16:23:48.310Z,110048.00
2018-09-06T16:25:19.476Z,109760.00
2018-09-06T16:26:51.220Z,103232.00
2018-09-06T16:28:23.596Z,110816.00
2018-09-06T16:29:54.591Z,112096.00
2018-09-06T16:34:29.556Z,109952.00
2018-09-06T16:36:00.876Z,113152.00
2018-09-06T16:37:32.772Z,113536.00
2018-09-06T16:39:03.851Z,111968.00
2018-09-06T16:42:07.790Z,112864.00
2018-09-06T16:43:38.996Z,112512.00
2018-09-06T16:45:12.490Z,110528.00
2018-09-06T16:46:41.615Z,113888.00
2018-09-06T16:48:13.529Z,109728.00
2018-09-06T16:49:44.903Z,110880.00
2018-09-06T16:51:16.557Z,65536.00
2018-09-06T16:52:49.836Z,35040.00
2018-09-06T16:54:19.748Z,56000.00
2018-09-06T16:55:52.058Z,64640.00
2018-09-06T16:57:23.154Z,107104.00
2018-09-06T16:58:55.076Z,82720.00
2018-09-06T17:00:26.989Z,108960.00
2018-09-06T17:01:58.084Z,110240.00
2018-09-06T17:03:30.091Z,106848.00
2018-09-06T17:05:01.376Z,107520.00
2018-09-06T17:06:32.141Z,103872.00
2018-09-06T17:08:03.629Z,104288.00
2018-09-06T17:09:35.251Z,106272.00
2018-09-06T17:11:06.993Z,105536.00
2018-09-06T17:12:38.676Z,108736.00
2018-09-06T17:14:09.958Z,101728.00
2018-09-06T17:17:13.565Z,105920.00
2018-09-06T17:18:44.958Z,103008.00
2018-09-06T17:23:19.457Z,101632.00
2018-09-06T17:24:51.091Z,98688.00
2018-09-06T17:27:54.211Z,96160.00
2018-09-06T17:29:25.791Z,94496.00
2018-09-06T17:30:57.677Z,99552.00
2018-09-06T17:32:29.217Z,96992.00
2018-09-06T17:34:00.543Z,93952.00
2018-09-06T17:37:04.163Z,96224.00
2018-09-06T17:38:35.892Z,100288.00
2018-09-06T17:40:06.874Z,93792.00
2018-09-06T17:41:38.458Z,95520.00
2018-09-06T17:43:10.341Z,90624.00
2018-09-06T17:44:41.858Z,86912.00
2018-09-06T17:46:13.207Z,91392.00
2018-09-06T17:47:45.152Z,90560.00
2018-09-06T17:49:16.475Z,86016.00
2018-09-06T17:50:47.956Z,87360.00
2018-09-06T17:52:19.699Z,86752.00
2018-09-06T17:53:51.122Z,83616.00
2018-09-06T17:55:23.236Z,85824.00
2018-09-06T17:59:57.656Z,79616.00
2018-09-06T18:03:00.922Z,79264.00
2018-09-06T18:04:32.825Z,80320.00
2018-09-06T18:06:03.789Z,82592.00
2018-09-06T18:07:35.368Z,78528.00
2018-09-06T18:09:07.050Z,77088.00
2018-09-06T18:12:10.114Z,75072.00
2018-09-06T18:13:41.697Z,79104.00
2018-09-06T18:15:13.478Z,72064.00
2018-09-06T18:16:45.063Z,73280.00
2018-09-06T18:18:16.650Z,66336.00
2018-09-06T18:19:48.329Z,73760.00
2018-09-06T18:21:19.707Z,71360.00
2018-09-06T18:22:52.754Z,68192.00
2018-09-06T18:24:22.776Z,67776.00
2018-09-06T18:27:26.035Z,65504.00
2018-09-06T18:28:57.516Z,64288.00
2018-09-06T18:32:01.037Z,67136.00
2018-09-06T18:33:32.662Z,66752.00
2018-09-06T18:36:35.423Z,56896.00
2018-09-06T18:38:07.008Z,54624.00
2018-09-06T18:39:38.692Z,56128.00
2018-09-06T18:41:10.712Z,58784.00
2018-09-06T18:42:41.747Z,62016.00
2018-09-06T18:44:13.535Z,68352.00
2018-09-06T18:48:49.020Z,64672.00
2018-09-06T18:50:19.650Z,65024.00
2018-09-06T18:51:51.246Z,64736.00
2018-09-06T18:53:22.811Z,64480.00
2018-09-06T18:54:54.594Z,64672.00
2018-09-06T18:56:26.513Z,66368.00
2018-09-06T18:57:57.553Z,65216.00
2018-09-06T18:59:29.149Z,61120.00
2018-09-06T19:01:00.814Z,62112.00
2018-09-06T19:02:32.592Z,56384.00
2018-09-06T19:04:03.870Z,53536.00
2018-09-06T19:05:35.450Z,51552.00
2018-09-06T19:07:07.430Z,50880.00
2018-09-06T19:08:38.608Z,46656.00
2018-09-06T19:10:10.185Z,47808.00
2018-09-06T19:14:45.223Z,48768.00
2018-09-06T19:16:16.501Z,46752.00
2018-09-06T19:17:48.080Z,42784.00
2018-09-06T19:20:51.338Z,28640.00
2018-09-06T19:23:54.596Z,41312.00
2018-09-06T19:25:25.972Z,38208.00
2018-09-06T19:28:29.329Z,39360.00
2018-09-06T19:31:32.308Z,16964.00
2018-09-06T19:33:03.859Z,27552.00
2018-09-06T19:36:07.112Z,29024.00
2018-09-06T19:37:38.589Z,34784.00
2018-09-06T19:39:10.197Z,45184.00
2018-09-06T19:40:41.740Z,23584.00
2018-09-06T19:42:13.720Z,23808.00
2018-09-06T19:43:45.102Z,14480.00
2018-09-06T19:46:48.044Z,16004.00
2018-09-06T19:48:19.819Z,26368.00
2018-09-06T19:49:51.195Z,28352.00
2018-09-06T19:51:22.973Z,27136.00
2018-09-06T19:52:54.548Z,20032.00
2018-09-06T19:54:26.023Z,17120.00
2018-09-06T19:55:57.800Z,14464.00
2018-09-06T19:57:29.622Z,14624.00
2018-09-06T19:59:00.643Z,13700.00
2018-09-06T20:00:32.762Z,12184.00
2018-09-06T20:02:03.805Z,10468.00
2018-09-06T20:03:35.466Z,9168.00
2018-09-06T20:05:06.939Z,9948.00
2018-09-06T20:08:10.118Z,7852.00
2018-09-06T20:09:41.760Z,6872.00
2018-09-06T20:11:13.232Z,7260.00
2018-09-06T20:14:16.377Z,6056.00
2018-09-06T20:15:48.556Z,6004.00
2018-09-06T20:17:19.521Z,7284.00
2018-09-06T20:20:22.667Z,5024.00
2018-09-06T20:21:54.336Z,5020.00
2018-09-06T20:23:25.810Z,5528.00
2018-09-06T20:24:57.385Z,5760.00
2018-09-06T20:26:28.952Z,4460.00
2018-09-06T20:31:04.075Z,3412.00
2018-09-06T20:32:35.236Z,3172.00
2018-09-06T20:34:06.806Z,2980.00